Time;durP1;ratioP1;P1;durP2;ratioP2;P2;SDS_P1;SDS_P2;PMS_P1;PMS_P2;Temp;Humidity;BMP_temperature;BMP_pressure;BME280_temperature;BME280_humidity;BME280_pressure;Samples;Min_cycle;Max_cycle;Signal;HPM_P1;HPM_P2
2022/08/19 00:01:56;;;;;;;1.27;0.93;;;22.80;99.90;;;;;;4967359;28;20032;-68
2022/08/19 00:04:27;;;;;;;1.38;1.27;;;22.90;99.90;;;;;;4951944;28;20031;-67
2022/08/19 00:06:53;;;;;;;1.63;1.52;;;22.90;99.90;;;;;;4967036;28;20440;-68
2022/08/19 00:09:22;;;;;;;1.77;1.30;;;22.90;99.90;;;;;;4960065;28;20055;-67
2022/08/19 00:11:47;;;;;;;1.35;1.15;;;22.90;99.90;;;;;;4951132;29;20123;-67
2022/08/19 00:14:16;;;;;;;2.92;1.75;;;22.90;99.90;;;;;;4952444;28;20107;-67
2022/08/19 00:16:45;;;;;;;1.52;1.05;;;22.90;99.90;;;;;;4974659;28;20065;-67
2022/08/19 00:19:11;;;;;;;1.35;1.10;;;22.80;99.90;;;;;;4966975;28;20047;-68
2022/08/19 00:21:38;;;;;;;2.30;1.35;;;22.80;99.90;;;;;;4951808;28;20062;-67
2022/08/19 00:24:04;;;;;;;2.05;1.63;;;22.90;99.90;;;;;;4965724;28;20034;-68
2022/08/19 00:26:30;;;;;;;1.85;1.50;;;22.80;99.90;;;;;;4986394;28;20027;-67
2022/08/19 00:28:56;;;;;;;3.50;2.22;;;22.80;99.90;;;;;;4961252;28;20038;-67
2022/08/19 00:31:22;;;;;;;6.03;2.15;;;22.70;99.90;;;;;;4971544;28;20066;-67
2022/08/19 00:33:50;;;;;;;3.47;2.03;;;22.70;99.90;;;;;;4976368;28;20023;-67
2022/08/19 00:36:17;;;;;;;2.95;1.83;;;22.60;99.90;;;;;;4986277;28;20031;-68
2022/08/19 00:38:43;;;;;;;3.03;2.00;;;22.50;99.90;;;;;;4970080;28;20039;-68
2022/08/19 00:41:13;;;;;;;1.75;1.65;;;22.50;99.90;;;;;;4968733;28;20045;-67
2022/08/19 00:43:40;;;;;;;6.00;2.35;;;22.40;99.90;;;;;;4975154;28;20069;-68
2022/08/19 00:46:05;;;;;;;4.78;1.92;;;22.40;99.90;;;;;;4974191;28;20019;-68
2022/08/19 00:48:33;;;;;;;2.38;2.17;;;22.40;99.90;;;;;;4990144;28;20093;-67
2022/08/19 00:51:00;;;;;;;1.95;1.10;;;22.30;99.90;;;;;;4973772;28;20037;-67
2022/08/19 00:53:30;;;;;;;1.48;1.38;;;22.30;99.90;;;;;;4988713;28;20034;-68
2022/08/19 00:55:59;;;;;;;2.08;1.88;;;22.30;99.90;;;;;;4989928;28;20035;-67
2022/08/19 00:58:32;;;;;;;2.50;1.60;;;22.30;99.90;;;;;;4973289;28;20040;-67
2022/08/19 01:00:58;;;;;;;1.38;1.27;;;22.30;99.90;;;;;;4969866;28;20042;-67
2022/08/19 01:03:24;;;;;;;1.52;1.42;;;22.20;99.90;;;;;;4970273;28;20488;-68
2022/08/19 01:05:53;;;;;;;1.52;1.42;;;22.20;99.90;;;;;;4962363;28;20027;-67
2022/08/19 01:08:20;;;;;;;1.15;1.05;;;22.20;99.90;;;;;;4950682;28;20564;-67
2022/08/19 01:10:54;;;;;;;1.75;1.27;;;22.20;99.90;;;;;;4965784;28;20066;-67
2022/08/19 01:13:27;;;;;;;2.45;1.67;;;22.20;99.90;;;;;;4968196;28;20552;-68
2022/08/19 01:16:04;;;;;;;1.35;1.13;;;22.30;99.90;;;;;;4975841;28;20065;-67
2022/08/19 01:18:35;;;;;;;1.58;1.08;;;22.30;99.90;;;;;;4983156;28;20034;-67
2022/08/19 01:21:07;;;;;;;2.10;1.70;;;22.30;99.90;;;;;;4987040;28;20037;-67
2022/08/19 01:23:44;;;;;;;3.47;1.70;;;22.30;99.90;;;;;;4953294;28;20105;-67
2022/08/19 01:26:23;;;;;;;2.10;1.33;;;22.30;99.90;;;;;;4955191;28;20023;-67
2022/08/19 01:28:53;;;;;;;1.85;1.63;;;22.30;99.90;;;;;;4974708;28;20117;-67
2022/08/19 01:31:24;;;;;;;0.88;0.82;;;22.30;99.90;;;;;;4974568;28;20484;-68
2022/08/19 01:33:52;;;;;;;;;;;22.30;99.90;;;;;;4968293;28;20101;-68
2022/08/19 01:36:35;;;;;;;1.90;1.80;;;22.40;99.90;;;;;;4969346;28;19910;-67
2022/08/19 01:39:06;;;;;;;5.05;1.02;;;22.40;99.90;;;;;;4988696;28;20027;-68
2022/08/19 01:41:33;;;;;;;1.70;1.15;;;22.40;99.90;;;;;;4961773;28;20736;-67
2022/08/19 01:44:03;;;;;;;1.58;1.35;;;22.40;99.90;;;;;;4953309;29;20035;-67
2022/08/19 01:46:30;;;;;;;2.38;0.98;;;22.40;99.90;;;;;;4954714;28;20047;-67
2022/08/19 01:48:55;;;;;;;0.68;0.68;;;22.40;99.90;;;;;;4977342;28;20063;-67
2022/08/19 01:51:21;;;;;;;3.17;2.90;;;22.40;99.90;;;;;;4954328;28;20077;-67
2022/08/19 01:53:49;;;;;;;3.85;3.08;;;22.40;99.90;;;;;;4956127;28;20111;-67
2022/08/19 01:56:16;;;;;;;2.30;1.63;;;22.50;99.90;;;;;;4973925;28;20476;-68
2022/08/19 01:58:51;;;;;;;5.65;1.67;;;22.60;99.90;;;;;;4973138;28;20039;-68
2022/08/19 02:01:17;;;;;;;2.13;1.25;;;22.50;99.90;;;;;;4971995;28;20031;-67
2022/08/19 02:03:43;;;;;;;1.85;1.70;;;22.50;99.90;;;;;;4973358;28;20034;-68
2022/08/19 02:06:09;;;;;;;1.60;1.50;;;22.50;99.90;;;;;;4964868;28;20400;-68
2022/08/19 02:08:37;;;;;;;2.13;1.52;;;22.50;99.90;;;;;;4971689;28;20035;-68
2022/08/19 02:11:05;;;;;;;1.77;1.50;;;22.40;99.90;;;;;;4988263;28;20794;-67
2022/08/19 02:13:32;;;;;;;4.03;2.13;;;22.50;99.90;;;;;;4967804;28;20447;-67
2022/08/19 02:15:58;;;;;;;0.95;0.82;;;22.40;99.90;;;;;;4954001;28;20027;-68
2022/08/19 02:18:23;;;;;;;1.65;0.75;;;22.40;99.90;;;;;;4956239;28;20505;-68
2022/08/19 02:20:49;;;;;;;2.30;2.00;;;22.40;99.90;;;;;;4972461;28;20566;-68
2022/08/19 02:23:16;;;;;;;1.50;1.40;;;22.40;99.90;;;;;;4988031;28;20046;-67
2022/08/19 02:25:46;;;;;;;1.75;1.17;;;22.30;99.90;;;;;;4982943;28;20137;-68
2022/08/19 02:28:12;;;;;;;2.43;1.80;;;22.20;99.90;;;;;;4953926;28;20503;-68
2022/08/19 02:30:40;;;;;;;1.55;1.25;;;22.30;99.90;;;;;;4968415;28;20063;-68
2022/08/19 02:33:06;;;;;;;2.15;1.58;;;22.20;99.90;;;;;;4976547;28;20534;-67
2022/08/19 02:35:32;;;;;;;0.38;0.35;;;22.20;99.90;;;;;;4953588;29;20118;-67
2022/08/19 02:40:51;;;;;;;1.08;0.95;;;22.20;99.90;;;;;;4972787;28;20031;-67
2022/08/19 02:43:19;;;;;;;1.50;1.17;;;22.10;99.90;;;;;;4967412;28;20023;-67
2022/08/19 02:45:47;;;;;;;2.78;1.33;;;22.10;99.90;;;;;;4983432;28;20109;-68
2022/08/19 02:48:17;;;;;;;2.63;2.22;;;22.10;99.90;;;;;;4973030;28;20023;-68
2022/08/19 02:50:43;;;;;;;0.75;0.75;;;22.10;99.90;;;;;;4981025;28;20027;-68
2022/08/19 02:53:09;;;;;;;3.60;3.25;;;22.00;99.90;;;;;;4953094;28;20034;-67
2022/08/19 02:55:35;;;;;;;2.15;1.50;;;22.10;99.90;;;;;;4957047;28;20711;-67
2022/08/19 02:58:01;;;;;;;7.07;1.40;;;22.20;99.90;;;;;;4970778;28;20051;-68
2022/08/19 03:00:27;;;;;;;1.02;0.85;;;22.20;99.90;;;;;;4970701;28;20066;-68
2022/08/19 03:02:53;;;;;;;1.83;1.42;;;22.20;99.90;;;;;;4962811;28;20027;-67
2022/08/19 03:05:19;;;;;;;6.45;1.98;;;22.10;99.90;;;;;;4972649;28;20065;-68
2022/08/19 03:07:46;;;;;;;2.05;1.73;;;22.10;99.90;;;;;;4963877;28;20702;-67
2022/08/19 03:10:12;;;;;;;1.83;1.55;;;22.00;99.90;;;;;;4970718;28;20487;-68
2022/08/19 03:12:38;;;;;;;1.70;1.20;;;22.00;99.90;;;;;;4969304;28;20042;-67
2022/08/19 03:15:07;;;;;;;2.25;2.10;;;22.10;99.90;;;;;;4952973;28;20045;-68
2022/08/19 03:17:34;;;;;;;1.75;1.38;;;22.10;99.90;;;;;;4951442;29;20377;-68
2022/08/19 03:20:01;;;;;;;0.85;0.85;;;22.20;99.90;;;;;;4951416;28;20042;-67
2022/08/19 03:22:27;;;;;;;3.50;1.63;;;22.30;99.90;;;;;;4951226;29;20062;-68
2022/08/19 03:24:53;;;;;;;3.58;2.00;;;22.30;99.90;;;;;;4952903;28;20034;-67
2022/08/19 03:27:19;;;;;;;0.68;0.65;;;22.30;99.90;;;;;;4966108;28;20030;-68
2022/08/19 03:29:45;;;;;;;0.70;0.70;;;22.30;99.90;;;;;;4986985;28;20035;-68
2022/08/19 03:32:11;;;;;;;1.80;1.45;;;22.30;99.90;;;;;;4971862;28;20034;-69
2022/08/19 03:34:38;;;;;;;2.38;2.17;;;22.30;99.90;;;;;;4963008;28;20046;-68
2022/08/19 03:37:08;;;;;;;1.42;1.17;;;22.20;99.90;;;;;;4952733;28;20126;-68
2022/08/19 03:39:37;;;;;;;5.32;1.80;;;22.10;99.90;;;;;;4951991;28;20027;-68
2022/08/19 03:42:04;;;;;;;2.25;1.77;;;21.90;99.90;;;;;;4951765;28;20039;-68
2022/08/19 03:44:30;;;;;;;1.48;1.35;;;21.80;99.90;;;;;;4953804;28;20038;-69
2022/08/19 03:46:59;;;;;;;4.07;1.67;;;21.70;99.90;;;;;;4969843;28;20026;-68
2022/08/19 03:49:32;;;;;;;1.38;1.27;;;21.70;99.90;;;;;;4971544;28;20026;-68
2022/08/19 03:52:00;;;;;;;1.50;0.98;;;21.60;99.90;;;;;;4985481;28;20027;-68
2022/08/19 03:54:27;;;;;;;6.18;1.92;;;21.60;99.90;;;;;;4971633;28;20034;-68
2022/08/19 03:56:55;;;;;;;2.75;2.50;;;21.60;99.90;;;;;;4985828;28;20027;-68
2022/08/19 03:59:30;;;;;;;1.65;1.17;;;21.60;99.90;;;;;;4971132;28;20038;-68
2022/08/19 04:01:59;;;;;;;2.10;1.58;;;21.60;99.90;;;;;;4986411;28;20074;-68
2022/08/19 04:04:26;;;;;;;4.70;1.38;;;21.60;99.90;;;;;;4970490;28;20035;-68
2022/08/19 04:06:52;;;;;;;2.47;2.28;;;21.70;99.90;;;;;;4971317;28;20388;-68
2022/08/19 04:09:19;;;;;;;1.83;1.67;;;21.70;99.90;;;;;;4965606;28;20027;-68
2022/08/19 04:11:56;;;;;;;1.73;1.63;;;21.80;99.90;;;;;;4966877;28;20038;-69
2022/08/19 04:14:31;;;;;;;3.17;2.28;;;21.90;99.90;;;;;;4956333;28;20039;-68
2022/08/19 04:17:04;;;;;;;1.20;1.10;;;21.90;99.90;;;;;;4968374;28;20399;-69
2022/08/19 04:19:31;;;;;;;2.80;1.58;;;22.00;99.90;;;;;;4991947;28;20034;-69
2022/08/19 04:21:58;;;;;;;3.20;1.80;;;22.00;99.90;;;;;;4967919;28;20126;-69
2022/08/19 04:24:24;;;;;;;0.75;0.75;;;22.10;99.90;;;;;;4987577;28;20030;-69
2022/08/19 04:26:50;;;;;;;1.60;0.98;;;22.10;99.90;;;;;;4959007;28;20031;-69
2022/08/19 04:29:24;;;;;;;3.40;1.73;;;22.10;99.90;;;;;;4955213;28;20027;-68
2022/08/19 04:31:53;;;;;;;8.20;2.25;;;22.00;99.90;;;;;;4954610;29;20074;-68
2022/08/19 04:34:22;;;;;;;6.68;1.20;;;22.00;99.90;;;;;;4911705;28;20197;-68
2022/08/19 04:36:50;;;;;;;1.17;1.08;;;21.90;99.90;;;;;;4961198;28;20084;-68
2022/08/19 04:39:21;;;;;;;0.90;0.80;;;21.90;99.90;;;;;;4993140;28;20026;-68
2022/08/19 04:44:36;;;;;;;1.45;1.23;;;21.90;99.90;;;;;;4938969;28;20042;-68
2022/08/19 04:47:05;;;;;;;2.15;1.17;;;21.90;99.90;;;;;;5000006;28;20026;-68
2022/08/19 04:49:31;;;;;;;4.47;1.50;;;21.90;99.90;;;;;;4987563;28;20420;-69
2022/08/19 04:51:56;;;;;;;1.30;1.20;;;21.90;99.90;;;;;;4991175;28;20407;-68
2022/08/19 04:54:24;;;;;;;2.20;0.70;;;21.90;99.90;;;;;;4993757;28;20026;-69
2022/08/19 04:56:52;;;;;;;2.05;1.08;;;21.90;99.90;;;;;;4993935;28;20045;-69
2022/08/19 04:59:19;;;;;;;1.23;1.10;;;21.90;99.90;;;;;;4992396;28;20137;-69
2022/08/19 05:01:49;;;;;;;2.40;1.50;;;21.90;99.90;;;;;;4992604;28;20041;-69
2022/08/19 05:04:20;;;;;;;2.20;1.80;;;21.80;99.90;;;;;;4976660;28;20479;-69
2022/08/19 05:06:51;;;;;;;1.67;1.40;;;21.80;99.90;;;;;;4976374;28;20042;-66
2022/08/19 05:09:17;;;;;;;0.93;0.93;;;21.80;99.90;;;;;;4976326;28;20117;-65
2022/08/19 05:11:44;;;;;;;47.45;2.72;;;21.80;99.90;;;;;;4993582;28;20164;-65
2022/08/19 05:14:12;;;;;;;0.82;0.82;;;21.80;99.90;;;;;;4993601;28;20557;-66
2022/08/19 05:16:39;;;;;;;0.75;0.75;;;21.80;99.90;;;;;;4985954;28;20041;-65
2022/08/19 05:24:34;;;;;;;1.08;0.95;;;21.70;99.90;;;;;;5011738;28;20022;-66
2022/08/19 05:27:02;;;;;;;5.13;2.90;;;21.70;99.90;;;;;;5012602;28;20510;-66
2022/08/19 05:29:31;;;;;;;0.60;0.60;;;21.80;99.90;;;;;;5012732;28;20030;-66
2022/08/19 05:31:58;;;;;;;1.40;1.30;;;21.80;99.90;;;;;;4995636;28;20026;-67
2022/08/19 05:34:25;;;;;;;1.52;1.30;;;21.90;99.90;;;;;;4995239;28;20026;-67
2022/08/19 05:36:56;;;;;;;2.03;1.85;;;21.80;99.90;;;;;;5012974;28;20033;-66
2022/08/19 05:39:28;;;;;;;1.42;1.27;;;21.80;99.90;;;;;;4995202;28;20030;-66
2022/08/19 05:41:58;;;;;;;2.90;1.23;;;21.90;99.90;;;;;;5012764;28;20056;-67
2022/08/19 05:44:31;;;;;;;1.50;1.40;;;21.90;99.90;;;;;;5012591;28;20076;-66
2022/08/19 05:46:59;;;;;;;0.88;0.80;;;21.90;99.90;;;;;;4995537;28;20022;-68
2022/08/19 05:49:26;;;;;;;1.60;1.50;;;22.00;99.90;;;;;;5012411;28;20030;-68
2022/08/19 05:51:53;;;;;;;2.15;1.92;;;22.10;99.90;;;;;;4995067;28;20033;-69
2022/08/19 05:54:19;;;;;;;2.15;1.67;;;22.00;99.90;;;;;;5012387;28;20026;-68
2022/08/19 05:56:47;;;;;;;2.78;1.38;;;22.10;99.90;;;;;;5012376;28;20453;-68
2022/08/19 05:59:15;;;;;;;1.95;1.75;;;22.10;99.90;;;;;;5012428;28;20068;-68
2022/08/19 06:01:45;;;;;;;1.55;1.25;;;22.10;99.90;;;;;;5002407;28;20069;-67
2022/08/19 06:04:13;;;;;;;3.83;1.88;;;22.20;99.90;;;;;;4975665;28;20026;-66
2022/08/19 06:06:40;;;;;;;2.95;1.52;;;22.20;99.90;;;;;;4992555;28;20042;-67
2022/08/19 06:09:07;;;;;;;0.93;0.80;;;22.30;99.90;;;;;;4986690;28;20022;-66
2022/08/19 06:11:45;;;;;;;1.48;1.00;;;22.30;99.90;;;;;;4982904;28;20072;-68
2022/08/19 06:14:20;;;;;;;1.55;1.40;;;22.40;99.90;;;;;;4973159;28;20157;-69
2022/08/19 06:16:45;;;;;;;4.00;1.08;;;22.40;99.90;;;;;;4968839;28;20053;-68
2022/08/19 06:19:16;;;;;;;2.08;1.88;;;22.50;99.90;;;;;;4992305;28;20546;-69
2022/08/19 06:21:45;;;;;;;2.58;2.33;;;22.70;99.90;;;;;;4992537;28;20038;-68
2022/08/19 06:24:14;;;;;;;0.98;0.88;;;22.80;99.90;;;;;;4990982;28;20490;-68
2022/08/19 06:26:46;;;;;;;3.47;1.95;;;22.80;99.90;;;;;;4992415;28;20042;-68
2022/08/19 06:29:14;;;;;;;0.88;0.88;;;22.90;99.90;;;;;;4991072;28;20367;-69
2022/08/19 06:31:46;;;;;;;1.15;0.90;;;23.00;99.90;;;;;;4991683;28;20038;-68
2022/08/19 06:34:12;;;;;;;0.28;0.28;;;23.10;99.90;;;;;;4969040;28;20058;-68
2022/08/19 06:36:43;;;;;;;1.20;1.10;;;23.20;99.90;;;;;;4972478;28;20121;-68
2022/08/19 06:39:16;;;;;;;6.78;2.00;;;23.40;99.90;;;;;;4972658;28;20031;-68
2022/08/19 06:41:45;;;;;;;4.20;3.13;;;23.50;99.90;;;;;;4971608;28;20054;-68
2022/08/19 06:44:12;;;;;;;1.08;0.88;;;23.50;99.90;;;;;;4973077;28;20035;-68
2022/08/19 06:46:40;;;;;;;1.15;0.90;;;23.50;99.90;;;;;;4991499;28;20028;-68
2022/08/19 06:49:08;;;;;;;2.80;1.50;;;23.50;99.90;;;;;;4994089;28;20030;-68
2022/08/19 06:51:34;;;;;;;2.10;0.98;;;23.50;99.90;;;;;;4994164;28;20037;-68
2022/08/19 06:54:01;;;;;;;0.47;0.47;;;23.40;99.90;;;;;;5011275;28;20034;-68
2022/08/19 06:56:34;;;;;;;0.52;0.52;;;23.50;99.90;;;;;;5011646;28;20021;-68
2022/08/19 06:59:10;;;;;;;0.75;0.75;;;23.50;99.90;;;;;;5011154;28;20037;-68
2022/08/19 07:01:46;;;;;;;0.22;0.22;;;23.40;99.90;;;;;;5011326;28;20080;-67
2022/08/19 07:04:18;;;;;;;1.95;1.42;;;23.40;99.90;;;;;;5010135;28;20064;-68
2022/08/19 07:06:44;;;;;;;1.05;0.65;;;23.50;99.90;;;;;;4994365;28;20092;-68
2022/08/19 07:09:16;;;;;;;1.35;0.88;;;23.60;99.90;;;;;;5010590;28;20411;-69
2022/08/19 07:11:47;;;;;;;1.35;0.75;;;23.60;99.90;;;;;;4994265;28;20050;-68
2022/08/19 07:14:15;;;;;;;0.45;0.43;;;23.60;99.90;;;;;;4993520;28;20026;-69
2022/08/19 07:16:41;;;;;;;0.82;0.82;;;23.60;99.90;;;;;;4990485;28;20034;-70
2022/08/19 07:19:07;;;;;;;1.05;0.95;;;23.60;99.90;;;;;;4985791;28;20034;-69
2022/08/19 07:21:33;;;;;;;1.95;1.00;;;23.60;99.90;;;;;;4994699;28;20398;-70
2022/08/19 07:23:59;;;;;;;0.20;0.20;;;23.50;99.90;;;;;;4993031;28;20032;-70
2022/08/19 07:26:30;;;;;;;2.97;2.55;;;23.50;99.90;;;;;;4993154;28;20541;-70
2022/08/19 07:28:57;;;;;;;1.20;1.10;;;23.50;99.90;;;;;;4993491;28;20029;-70
2022/08/19 07:31:26;;;;;;;0.93;0.70;;;23.60;99.90;;;;;;4976761;28;20042;-70
2022/08/19 07:33:56;;;;;;;0.82;0.82;;;23.60;99.90;;;;;;4993309;28;20034;-71
2022/08/19 07:36:30;;;;;;;0.85;0.63;;;23.70;99.90;;;;;;4993629;28;20409;-69
2022/08/19 07:38:58;;;;;;;0.75;0.75;;;23.80;99.90;;;;;;4993866;28;20443;-69
2022/08/19 07:41:28;;;;;;;1.15;0.73;;;23.70;99.90;;;;;;4993219;28;20040;-70
2022/08/19 07:43:54;;;;;;;1.00;0.90;;;23.90;99.90;;;;;;4993268;28;20022;-72
2022/08/19 07:46:21;;;;;;;0.40;0.40;;;23.90;99.90;;;;;;5010853;28;20368;-73
2022/08/19 07:48:49;;;;;;;0.88;0.85;;;24.00;99.90;;;;;;4992512;28;20030;-72
2022/08/19 07:51:20;;;;;;;0.73;0.73;;;24.00;99.90;;;;;;4993375;28;20058;-72
2022/08/19 07:53:47;;;;;;;0.98;0.90;;;24.00;99.90;;;;;;5010797;28;20036;-72
2022/08/19 07:56:14;;;;;;;0.85;0.85;;;24.00;99.90;;;;;;5010470;28;20042;-73
2022/08/19 07:58:45;;;;;;;2.53;1.33;;;23.90;99.90;;;;;;4993251;28;20033;-71
2022/08/19 08:01:16;;;;;;;0.80;0.60;;;23.90;99.90;;;;;;4993249;28;20034;-72
2022/08/19 08:09:27;;;;;;;0.63;0.50;;;23.90;99.90;;;;;;4992892;28;20053;-66
2022/08/19 08:12:10;;;;;;;2.00;0.65;;;23.90;99.90;;;;;;4992613;28;20065;-66
2022/08/19 08:14:52;;;;;;;1.13;0.70;;;23.90;99.90;;;;;;5010623;28;20033;-66
2022/08/19 08:17:21;;;;;;;2.33;1.80;;;24.00;99.90;;;;;;4993059;28;20049;-65
2022/08/19 08:19:50;;;;;;;2.17;1.45;;;24.10;99.90;;;;;;5009107;28;20040;-67
2022/08/19 08:25:07;;;;;;;0.73;0.55;;;24.10;99.90;;;;;;4993256;28;20437;-68
2022/08/19 08:27:39;;;;;;;1.75;1.05;;;24.20;99.90;;;;;;4989706;28;20482;-67
2022/08/19 08:30:09;;;;;;;1.10;1.00;;;24.20;99.90;;;;;;4989360;28;20038;-67
2022/08/19 08:32:37;;;;;;;0.77;0.77;;;24.30;99.90;;;;;;4990599;28;20030;-66
2022/08/19 08:35:11;;;;;;;0.50;0.43;;;24.30;99.90;;;;;;4977608;28;20102;-67
2022/08/19 08:37:37;;;;;;;0.55;0.55;;;24.40;99.90;;;;;;4971620;28;20211;-67
2022/08/19 08:40:27;;;;;;;0.52;0.20;;;24.40;99.90;;;;;;4969915;28;20029;-66
2022/08/19 08:43:23;;;;;;;0.10;0.10;;;24.50;99.90;;;;;;4969969;28;20030;-67
2022/08/19 08:46:21;;;;;;;0.85;0.60;;;24.70;99.90;;;;;;4978207;28;20030;-67
2022/08/19 08:49:20;;;;;;;1.17;0.70;;;24.80;99.90;;;;;;5009184;28;20054;-66
2022/08/19 08:52:13;;;;;;;0.63;0.40;;;25.10;99.90;;;;;;5010196;28;20044;-66
2022/08/19 08:54:46;;;;;;;0.80;0.80;;;25.30;99.90;;;;;;4992208;28;20376;-67
2022/08/19 08:57:36;;;;;;;1.30;1.08;;;25.40;99.90;;;;;;5008641;28;20036;-67
2022/08/19 09:00:08;;;;;;;3.45;0.93;;;25.40;99.90;;;;;;5011051;28;20041;-67
2022/08/19 09:02:33;;;;;;;7.20;1.02;;;25.60;99.90;;;;;;5012509;28;20494;-67
2022/08/19 09:04:59;;;;;;;1.27;1.17;;;25.70;99.90;;;;;;4995964;28;20040;-67
2022/08/19 09:07:50;;;;;;;1.75;0.95;;;25.70;99.90;;;;;;5012153;28;20080;-67
2022/08/19 09:10:42;;;;;;;0.38;0.35;;;25.90;99.90;;;;;;5012424;28;20060;-67
2022/08/19 09:13:33;;;;;;;0.43;0.28;;;26.00;99.50;;;;;;5013701;28;20041;-66
2022/08/19 09:16:04;;;;;;;0.30;0.30;;;26.10;99.50;;;;;;5012270;28;20048;-66
2022/08/19 09:18:51;;;;;;;0.68;0.68;;;26.10;99.20;;;;;;5013464;28;20057;-67
2022/08/19 09:21:18;;;;;;;0.43;0.40;;;26.20;98.90;;;;;;5013402;28;20030;-67
2022/08/19 09:23:44;;;;;;;4.20;0.47;;;26.30;98.80;;;;;;5001219;28;20031;-68
2022/08/19 09:26:14;;;;;;;0.45;0.32;;;26.50;98.40;;;;;;4992784;28;20040;-66
2022/08/19 09:28:45;;;;;;;0.13;0.13;;;26.60;98.00;;;;;;4997829;28;20036;-66
2022/08/19 09:31:21;;;;;;;0.95;0.70;;;26.70;97.70;;;;;;5004398;28;20112;-66
2022/08/19 09:33:48;;;;;;;2.97;1.10;;;26.80;97.60;;;;;;5011142;28;20029;-69
2022/08/19 09:36:18;;;;;;;2.08;1.10;;;26.90;97.40;;;;;;5006278;28;20026;-68
2022/08/19 09:38:44;;;;;;;0.63;0.43;;;26.80;97.40;;;;;;5004570;28;20033;-69
2022/08/19 09:41:16;;;;;;;1.20;0.60;;;26.60;97.60;;;;;;5006494;28;20721;-69
2022/08/19 09:43:45;;;;;;;0.80;0.73;;;26.60;97.70;;;;;;5003888;28;20161;-68
2022/08/19 09:46:12;;;;;;;1.02;0.95;;;26.60;97.30;;;;;;4996309;28;20474;-69
2022/08/19 09:48:40;;;;;;;0.82;0.35;;;26.70;97.20;;;;;;4994372;28;20045;-69
2022/08/19 09:51:14;;;;;;;0.20;0.20;;;26.80;96.60;;;;;;5002710;28;20165;-68
2022/08/19 09:53:41;;;;;;;1.55;0.95;;;26.80;96.60;;;;;;5010693;28;20038;-68
2022/08/19 09:56:07;;;;;;;1.20;0.93;;;27.00;96.70;;;;;;4996547;28;20026;-68
2022/08/19 09:58:34;;;;;;;1.95;0.25;;;27.00;96.00;;;;;;4993417;28;20026;-68
2022/08/19 10:01:01;;;;;;;0.40;0.35;;;27.00;95.90;;;;;;4998912;28;20098;-68
2022/08/19 10:03:29;;;;;;;0.50;0.50;;;26.90;96.30;;;;;;4991339;28;20035;-68
2022/08/19 10:05:58;;;;;;;0.73;0.55;;;27.00;95.80;;;;;;5003235;28;20481;-68
2022/08/19 10:08:34;;;;;;;0.63;0.50;;;27.00;95.80;;;;;;5003073;28;20033;-68
2022/08/19 10:11:02;;;;;;;0.38;0.38;;;27.00;95.50;;;;;;4994202;28;20037;-65
2022/08/19 10:13:31;;;;;;;0.88;0.57;;;27.00;95.60;;;;;;4998485;28;20496;-65
2022/08/19 10:16:07;;;;;;;2.25;0.68;;;26.90;95.50;;;;;;4987044;28;20037;-67
2022/08/19 10:18:34;;;;;;;0.10;0.10;;;26.80;95.50;;;;;;4993146;28;20036;-66
2022/08/19 10:21:28;;;;;;;1.27;0.98;;;27.00;95.70;;;;;;5008810;28;20558;-66
2022/08/19 10:23:59;;;;;;;0.43;0.40;;;27.10;95.30;;;;;;4999955;28;20053;-66
2022/08/19 10:26:32;;;;;;;3.20;0.65;;;27.30;95.30;;;;;;4996676;28;20027;-67
2022/08/19 10:28:58;;;;;;;2.17;1.98;;;27.60;95.10;;;;;;4998856;28;20057;-65
2022/08/19 10:31:30;;;;;;;0.05;0.05;;;27.60;95.00;;;;;;4995138;28;20030;-66
2022/08/19 10:33:57;;;;;;;0.80;0.75;;;27.50;95.00;;;;;;4996207;28;20034;-66
2022/08/19 10:36:29;;;;;;;0.65;0.65;;;27.70;95.10;;;;;;4993381;28;20037;-65
2022/08/19 10:38:58;;;;;;;1.95;0.50;;;27.90;94.90;;;;;;4999922;28;20034;-66
2022/08/19 10:41:29;;;;;;;0.28;0.28;;;28.10;94.50;;;;;;4985753;28;20026;-65
2022/08/19 10:43:58;;;;;;;1.20;1.10;;;28.20;94.30;;;;;;4989506;28;20033;-65
2022/08/19 10:46:27;;;;;;;3.30;1.45;;;28.30;94.30;;;;;;5005703;28;20085;-65
2022/08/19 10:48:53;;;;;;;1.75;1.00;;;28.40;94.20;;;;;;4995624;28;20031;-66
2022/08/19 10:54:05;;;;;;;1.80;0.80;;;28.00;94.40;;;;;;4997244;28;20037;-67
2022/08/19 10:56:50;;;;;;;0.57;0.45;;;28.20;94.20;;;;;;4991527;28;20030;-66
2022/08/19 10:59:18;;;;;;;0.63;0.50;;;28.10;93.70;;;;;;5002253;28;20049;-67
2022/08/19 11:01:45;;;;;;;1.08;0.95;;;28.50;93.70;;;;;;4992040;28;20076;-67
2022/08/19 11:04:13;;;;;;;2.22;0.93;;;28.70;93.00;;;;;;4998798;28;20052;-67
2022/08/19 11:06:47;;;;;;;0.35;0.35;;;28.80;92.90;;;;;;5003312;28;20053;-66
2022/08/19 11:09:16;;;;;;;2.08;1.00;;;28.60;92.10;;;;;;4999164;28;20072;-66
2022/08/19 11:11:42;;;;;;;0.63;0.60;;;28.40;92.20;;;;;;5008234;28;20040;-65
2022/08/19 11:14:13;;;;;;;0.55;0.55;;;28.50;92.40;;;;;;5000529;28;20069;-66
2022/08/19 11:16:40;;;;;;;1.10;1.00;;;28.80;92.10;;;;;;5006883;28;20022;-67
2022/08/19 11:19:09;;;;;;;1.00;0.77;;;28.70;91.90;;;;;;4987090;28;20042;-67
2022/08/19 11:21:42;;;;;;;1.60;1.50;;;28.80;91.90;;;;;;5001758;28;20483;-65
2022/08/19 11:24:20;;;;;;;0.20;0.20;;;29.00;91.80;;;;;;4997041;28;20034;-66
2022/08/19 11:26:49;;;;;;;2.08;0.93;;;29.10;91.70;;;;;;4991112;28;20030;-65
2022/08/19 11:29:16;;;;;;;4.25;1.42;;;29.00;91.30;;;;;;4984611;28;20033;-66
2022/08/19 11:31:45;;;;;;;0.63;0.63;;;28.80;91.50;;;;;;5008888;28;20038;-66
2022/08/19 11:34:17;;;;;;;0.30;0.30;;;29.00;91.60;;;;;;4978486;28;20038;-66
2022/08/19 11:36:47;;;;;;;0.43;0.43;;;29.10;91.80;;;;;;5007406;28;20068;-66
2022/08/19 11:39:16;;;;;;;3.00;2.13;;;29.20;91.30;;;;;;4993523;28;20033;-66
2022/08/19 11:41:42;;;;;;;1.15;0.95;;;29.10;91.30;;;;;;4991118;28;20093;-66
2022/08/19 11:44:08;;;;;;;0.55;0.50;;;29.10;91.50;;;;;;5004566;28;20397;-66
2022/08/19 11:46:36;;;;;;;0.95;0.88;;;29.30;90.70;;;;;;5004817;28;20025;-66
2022/08/19 11:49:04;;;;;;;0.43;0.40;;;29.40;89.70;;;;;;4999912;28;20092;-65
2022/08/19 11:51:31;;;;;;;1.58;0.95;;;29.50;88.80;;;;;;5006978;28;20038;-66
2022/08/19 11:53:59;;;;;;;0.35;0.35;;;29.60;88.90;;;;;;4999591;28;20030;-66
2022/08/19 11:56:27;;;;;;;0.70;0.68;;;29.70;88.40;;;;;;4984071;28;20039;-66
2022/08/19 11:58:54;;;;;;;0.05;0.05;;;29.40;89.10;;;;;;4984626;28;20033;-66
2022/08/19 12:01:23;;;;;;;11.20;0.93;;;29.50;89.90;;;;;;4988959;28;20034;-66
2022/08/19 12:03:52;;;;;;;0.80;0.70;;;29.60;89.40;;;;;;4996084;28;20432;-65
2022/08/19 12:06:28;;;;;;;1.02;0.60;;;29.40;90.00;;;;;;4969480;28;20396;-66
2022/08/19 12:08:56;;;;;;;0.68;0.68;;;29.10;89.10;;;;;;4998567;28;20045;-66
2022/08/19 12:11:22;;;;;;;1.52;1.17;;;29.00;87.60;;;;;;4985731;28;20038;-66
2022/08/19 12:13:48;;;;;;;2.38;1.15;;;29.10;87.10;;;;;;4996984;28;20188;-66
2022/08/19 12:16:23;;;;;;;0.47;0.47;;;29.40;87.10;;;;;;4996100;28;20687;-66
2022/08/19 12:18:50;;;;;;;0.80;0.65;;;29.50;87.50;;;;;;4998255;28;20161;-66
2022/08/19 12:21:24;;;;;;;1.17;0.80;;;29.70;86.60;;;;;;5008975;28;20037;-66
2022/08/19 12:23:51;;;;;;;1.20;0.80;;;30.00;86.40;;;;;;4997930;28;20026;-66
2022/08/19 12:26:18;;;;;;;0.52;0.52;;;30.00;84.70;;;;;;5008527;28;20371;-65
2022/08/19 12:28:44;;;;;;;0.90;0.75;;;29.70;85.10;;;;;;4992440;28;20042;-66
2022/08/19 12:31:13;;;;;;;0.35;0.35;;;29.80;84.90;;;;;;4983470;28;20037;-66
2022/08/19 12:33:41;;;;;;;0.13;0.10;;;29.90;85.10;;;;;;4998937;28;20030;-66
2022/08/19 12:36:10;;;;;;;0.10;0.10;;;30.10;85.40;;;;;;5000127;28;20069;-65
2022/08/19 12:38:37;;;;;;;0.30;0.30;;;30.30;84.50;;;;;;4979355;28;20038;-66
2022/08/19 12:41:06;;;;;;;1.48;1.13;;;30.50;82.60;;;;;;4994282;28;20451;-66
2022/08/19 12:43:34;;;;;;;0.60;0.60;;;30.20;82.60;;;;;;4998330;28;20034;-67
2022/08/19 12:46:02;;;;;;;0.45;0.45;;;29.80;81.00;;;;;;4996089;28;20538;-66
2022/08/19 12:48:29;;;;;;;1.00;0.52;;;29.60;80.50;;;;;;4985165;28;20093;-67
2022/08/19 12:50:54;;;;;;;0.63;0.40;;;29.60;80.70;;;;;;4992167;28;20125;-65
2022/08/19 12:53:20;;;;;;;0.40;0.40;;;29.80;80.70;;;;;;5010886;28;20464;-66
2022/08/19 12:55:46;;;;;;;0.32;0.32;;;30.10;80.40;;;;;;4997095;28;20034;-66
2022/08/19 12:58:12;;;;;;;1.17;0.38;;;30.60;79.50;;;;;;5001011;28;20084;-66
2022/08/19 13:00:39;;;;;;;0.50;0.50;;;31.00;79.10;;;;;;5010434;28;20422;-66
2022/08/19 13:03:05;;;;;;;0.77;0.77;;;31.50;77.30;;;;;;4985955;28;20038;-66
2022/08/19 13:05:35;;;;;;;0.65;0.55;;;31.80;73.80;;;;;;4979634;28;20027;-67
2022/08/19 13:08:03;;;;;;;0.38;0.30;;;31.80;73.50;;;;;;4991885;28;20070;-66
2022/08/19 13:10:36;;;;;;;0.35;0.35;;;32.10;72.40;;;;;;5004898;28;20034;-66
2022/08/19 13:13:05;;;;;;;0.68;0.68;;;32.30;72.10;;;;;;5000799;28;20521;-66
2022/08/19 13:15:42;;;;;;;0.95;0.68;;;32.70;71.00;;;;;;5004361;28;20030;-66
2022/08/19 13:18:10;;;;;;;0.40;0.30;;;32.70;71.00;;;;;;4992071;28;20026;-67
2022/08/19 13:20:37;;;;;;;0.70;0.60;;;32.90;70.50;;;;;;5007177;28;20050;-66
2022/08/19 13:23:04;;;;;;;0.22;0.22;;;33.10;67.80;;;;;;5001486;28;20027;-66